createdAt,value
2019-03-08T00:00:31.680Z,991.93
2019-03-08T00:01:31.690Z,991.86
2019-03-08T00:02:31.711Z,991.99
2019-03-08T00:03:31.732Z,991.92
2019-03-08T00:04:31.785Z,991.93
2019-03-08T00:05:31.759Z,991.95
2019-03-08T00:06:31.759Z,991.97
2019-03-08T00:07:31.773Z,991.91
2019-03-08T00:08:31.821Z,992.00
2019-03-08T00:09:31.787Z,992.10
2019-03-08T00:10:31.790Z,992.01
2019-03-08T00:11:31.799Z,992.06
2019-03-08T00:12:31.809Z,992.15
2019-03-08T00:13:31.841Z,992.04
2019-03-08T00:14:31.835Z,992.19
2019-03-08T00:15:31.848Z,992.04
2019-03-08T00:16:31.856Z,992.00
2019-03-08T00:17:31.879Z,992.22
2019-03-08T00:18:31.879Z,992.13
2019-03-08T00:19:31.890Z,992.13
2019-03-08T00:20:31.926Z,992.15
2019-03-08T00:21:31.926Z,992.19
2019-03-08T00:22:31.925Z,992.18
2019-03-08T00:23:31.940Z,992.11
2019-03-08T00:24:31.944Z,992.16
2019-03-08T00:25:31.958Z,992.16
2019-03-08T00:26:31.970Z,992.21
2019-03-08T00:27:31.984Z,992.19
2019-03-08T00:28:31.997Z,992.32
2019-03-08T00:29:32.004Z,992.21
2019-03-08T00:30:32.016Z,992.40
2019-03-08T00:31:32.027Z,992.32
2019-03-08T00:32:32.034Z,992.28
2019-03-08T00:33:32.048Z,992.32
2019-03-08T00:34:32.090Z,992.38
2019-03-08T00:35:32.119Z,992.34
2019-03-08T00:36:32.082Z,992.41
2019-03-08T00:37:32.093Z,992.31
2019-03-08T00:38:32.119Z,992.35
2019-03-08T00:39:32.114Z,992.48
2019-03-08T00:40:32.132Z,992.54
2019-03-08T00:41:32.139Z,992.46
2019-03-08T00:42:32.148Z,992.53
2019-03-08T00:43:32.199Z,992.51
2019-03-08T00:44:32.168Z,992.62
2019-03-08T00:45:32.193Z,992.57
2019-03-08T00:46:32.206Z,992.72
2019-03-08T00:47:32.205Z,992.63
2019-03-08T00:48:32.218Z,992.64
2019-03-08T00:49:32.229Z,992.62
2019-03-08T00:50:32.242Z,992.67
2019-03-08T00:51:32.252Z,992.69
2019-03-08T00:52:33.045Z,992.76
2019-03-08T00:53:32.275Z,992.74
2019-03-08T00:54:32.282Z,992.80
2019-03-08T00:55:32.291Z,992.79
2019-03-08T00:56:32.301Z,992.86
2019-03-08T00:57:32.316Z,992.83
2019-03-08T00:58:32.328Z,992.85
2019-03-08T00:59:32.337Z,992.77
2019-03-08T01:00:32.358Z,992.95
2019-03-08T01:01:32.362Z,993.02
2019-03-08T01:02:32.380Z,992.85
2019-03-08T01:03:32.380Z,992.87
2019-03-08T01:04:32.394Z,992.86
2019-03-08T01:05:32.402Z,992.86
2019-03-08T01:06:32.413Z,992.87
2019-03-08T01:07:32.439Z,992.76
2019-03-08T01:08:32.434Z,992.91
2019-03-08T01:09:32.452Z,992.83
2019-03-08T01:10:32.463Z,992.92
2019-03-08T01:11:32.488Z,992.91
2019-03-08T01:12:32.481Z,992.90
2019-03-08T01:13:32.508Z,992.82
2019-03-08T01:14:32.569Z,993.07
2019-03-08T01:15:32.589Z,992.87
2019-03-08T01:16:32.557Z,992.84
2019-03-08T01:17:32.539Z,992.95
2019-03-08T01:18:32.551Z,992.96
2019-03-08T01:19:32.556Z,992.92
2019-03-08T01:20:32.575Z,992.93
2019-03-08T01:22:32.591Z,992.98
2019-03-08T01:23:32.598Z,992.94
2019-03-08T01:24:32.609Z,993.05
2019-03-08T01:25:32.623Z,992.80
2019-03-08T01:26:32.634Z,993.01
2019-03-08T01:27:32.645Z,993.05
2019-03-08T01:28:32.659Z,993.00
2019-03-08T01:29:32.673Z,993.03
2019-03-08T01:30:32.687Z,993.17
2019-03-08T01:31:32.688Z,993.22
2019-03-08T01:32:32.697Z,993.20
2019-03-08T01:33:32.709Z,993.15
2019-03-08T01:34:32.720Z,993.17
2019-03-08T01:35:32.730Z,993.11
2019-03-08T01:36:32.738Z,993.18
2019-03-08T01:37:32.770Z,993.22
2019-03-08T01:38:32.767Z,993.21
2019-03-08T01:39:33.195Z,993.25
2019-03-08T01:40:32.791Z,993.27
2019-03-08T01:41:32.804Z,993.28
2019-03-08T01:42:32.809Z,993.31
2019-03-08T01:43:33.004Z,993.42
2019-03-08T01:44:33.926Z,993.41
2019-03-08T01:45:32.840Z,993.28
2019-03-08T01:46:32.854Z,993.43
2019-03-08T01:47:32.864Z,993.49
2019-03-08T01:48:32.875Z,993.52
2019-03-08T01:49:32.887Z,993.56
2019-03-08T01:50:32.893Z,993.54
2019-03-08T01:51:32.914Z,993.71
2019-03-08T01:52:32.917Z,993.68
2019-03-08T01:53:32.928Z,993.76
2019-03-08T01:54:32.944Z,993.87
2019-03-08T01:55:33.021Z,993.80
2019-03-08T01:56:33.065Z,993.95
2019-03-08T01:57:32.973Z,994.10
2019-03-08T01:58:32.998Z,993.98
2019-03-08T01:59:32.993Z,994.27
2019-03-08T02:00:33.006Z,994.11
2019-03-08T02:01:33.018Z,994.14
2019-03-08T02:02:33.026Z,994.24
2019-03-08T02:03:33.037Z,994.12
2019-03-08T02:04:33.057Z,994.33
2019-03-08T02:05:33.059Z,994.23
2019-03-08T02:06:33.069Z,994.22
2019-03-08T02:07:33.300Z,994.42
2019-03-08T02:08:33.092Z,994.23
2019-03-08T02:09:33.101Z,994.27
2019-03-08T02:10:33.174Z,994.30
2019-03-08T02:11:33.242Z,994.35
2019-03-08T02:12:33.132Z,994.32
2019-03-08T02:13:33.140Z,994.28
2019-03-08T02:14:33.159Z,994.34
2019-03-08T02:15:33.177Z,994.47
2019-03-08T02:16:33.282Z,994.33
2019-03-08T02:17:33.199Z,994.34
2019-03-08T02:18:33.210Z,994.30
2019-03-08T02:19:33.221Z,994.29
2019-03-08T02:20:33.224Z,994.39
2019-03-08T02:21:33.229Z,994.42
2019-03-08T02:22:33.236Z,994.39
2019-03-08T02:23:33.249Z,994.35
2019-03-08T02:24:33.258Z,994.45
2019-03-08T02:25:33.269Z,994.40
2019-03-08T02:26:33.282Z,994.44
2019-03-08T02:27:33.341Z,994.34
2019-03-08T02:28:33.323Z,994.36
2019-03-08T02:29:33.319Z,994.45
2019-03-08T02:30:33.332Z,994.34
2019-03-08T02:31:33.339Z,994.44
2019-03-08T02:32:33.343Z,994.45
2019-03-08T02:33:33.358Z,994.36
2019-03-08T02:34:33.380Z,994.53
2019-03-08T02:35:33.383Z,994.34
2019-03-08T02:36:33.386Z,994.41
2019-03-08T02:37:33.398Z,994.37
2019-03-08T02:38:33.410Z,994.35
2019-03-08T02:39:33.414Z,994.39
2019-03-08T02:40:33.425Z,994.38
2019-03-08T02:41:33.495Z,994.39
2019-03-08T02:42:33.445Z,994.40
2019-03-08T02:43:33.461Z,994.46
2019-03-08T02:44:33.467Z,994.52
2019-03-08T02:45:33.479Z,994.36
2019-03-08T02:46:33.496Z,994.45
2019-03-08T02:47:33.552Z,994.43
2019-03-08T02:48:33.519Z,994.48
2019-03-08T02:49:33.523Z,994.41
2019-03-08T02:50:33.540Z,994.36
2019-03-08T02:51:33.552Z,994.45
2019-03-08T02:52:33.552Z,994.34
2019-03-08T02:53:33.564Z,994.39
2019-03-08T02:55:33.716Z,994.46
2019-03-08T02:56:34.154Z,994.42
2019-03-08T02:57:33.609Z,994.40
2019-03-08T02:58:33.626Z,994.42
2019-03-08T02:59:33.696Z,994.44
2019-03-08T03:00:33.677Z,994.46
2019-03-08T03:01:33.662Z,994.41
2019-03-08T03:02:33.661Z,994.44
2019-03-08T03:03:33.672Z,994.54
2019-03-08T03:04:33.684Z,994.50
2019-03-08T03:05:33.701Z,994.47
2019-03-08T03:06:33.702Z,994.49
2019-03-08T03:07:33.722Z,994.60
2019-03-08T03:08:33.722Z,994.56
2019-03-08T03:09:33.740Z,994.50
2019-03-08T03:10:33.744Z,994.64
2019-03-08T03:11:33.761Z,994.56
2019-03-08T03:12:33.781Z,994.62
2019-03-08T03:13:33.782Z,994.65
2019-03-08T03:14:33.877Z,994.64
2019-03-08T03:15:33.805Z,994.67
2019-03-08T03:16:33.808Z,994.77
2019-03-08T03:17:33.825Z,994.69
2019-03-08T03:18:33.836Z,994.81
2019-03-08T03:19:33.845Z,994.87
2019-03-08T03:20:33.862Z,994.80
2019-03-08T03:21:33.863Z,994.78
2019-03-08T03:22:33.875Z,994.80
2019-03-08T03:23:33.890Z,994.81
2019-03-08T03:24:33.900Z,994.97
2019-03-08T03:25:33.921Z,994.91
2019-03-08T03:26:33.920Z,994.95
2019-03-08T03:27:33.933Z,995.14
2019-03-08T03:28:33.949Z,995.10
2019-03-08T03:29:33.953Z,995.09
2019-03-08T03:30:33.969Z,995.09
2019-03-08T03:31:34.108Z,995.12
2019-03-08T03:32:33.987Z,995.17
2019-03-08T03:33:33.998Z,995.24
2019-03-08T03:34:34.008Z,995.29
2019-03-08T03:35:34.030Z,995.24
2019-03-08T03:36:34.027Z,995.35
2019-03-08T03:37:34.048Z,995.31
2019-03-08T03:38:34.053Z,995.36
2019-03-08T03:39:34.063Z,995.23
2019-03-08T03:40:34.070Z,995.35
2019-03-08T03:41:34.085Z,995.32
2019-03-08T03:42:34.103Z,995.28
2019-03-08T03:43:34.107Z,995.40
2019-03-08T03:44:34.469Z,995.40
2019-03-08T03:45:34.166Z,995.44
2019-03-08T03:46:34.144Z,995.40
2019-03-08T03:47:34.155Z,995.45
2019-03-08T03:48:34.157Z,995.43
2019-03-08T03:49:34.311Z,995.57
2019-03-08T03:50:34.222Z,995.56
2019-03-08T03:51:34.195Z,995.54
2019-03-08T03:52:34.203Z,995.48
2019-03-08T03:53:34.218Z,995.56
2019-03-08T03:54:34.232Z,995.64
2019-03-08T03:55:34.273Z,995.79
2019-03-08T03:56:34.256Z,995.69
2019-03-08T03:57:34.873Z,995.64
2019-03-08T03:58:34.274Z,995.77
2019-03-08T03:59:34.283Z,995.78
2019-03-08T04:00:34.295Z,995.78
2019-03-08T04:01:34.304Z,995.78
2019-03-08T04:02:34.315Z,995.83
2019-03-08T04:03:34.389Z,995.86
2019-03-08T04:04:34.350Z,995.93
2019-03-08T04:05:34.383Z,995.91
2019-03-08T04:06:34.358Z,996.00
2019-03-08T04:07:34.373Z,996.04
2019-03-08T04:08:34.387Z,996.01
2019-03-08T04:09:34.406Z,996.04
2019-03-08T04:10:34.403Z,996.04
2019-03-08T04:11:34.412Z,996.10
2019-03-08T04:12:34.424Z,996.10
2019-03-08T04:13:34.435Z,996.19
2019-03-08T04:14:34.449Z,996.09
2019-03-08T04:15:34.459Z,996.10
2019-03-08T04:16:34.486Z,996.21
2019-03-08T04:17:34.648Z,996.22
2019-03-08T04:18:34.490Z,996.23
2019-03-08T04:19:34.503Z,996.24
2019-03-08T04:20:34.510Z,996.24
2019-03-08T04:21:34.536Z,996.31
2019-03-08T04:22:34.591Z,996.32
2019-03-08T04:23:34.592Z,996.32
2019-03-08T04:24:35.326Z,996.36
2019-03-08T04:25:35.062Z,996.31
2019-03-08T04:26:34.808Z,996.35
2019-03-08T04:29:34.613Z,996.39
2019-03-08T04:30:34.632Z,996.37
2019-03-08T04:31:34.636Z,996.39
2019-03-08T04:33:34.656Z,996.36
2019-03-08T04:34:34.663Z,996.49
2019-03-08T04:35:34.678Z,996.46
2019-03-08T04:36:34.699Z,996.51
2019-03-08T04:37:34.710Z,996.45
2019-03-08T04:38:34.718Z,996.45
2019-03-08T04:39:34.725Z,996.51
2019-03-08T04:40:34.767Z,996.54
2019-03-08T04:41:34.773Z,996.45
2019-03-08T04:42:34.759Z,996.58
2019-03-08T04:43:34.774Z,996.56
2019-03-08T04:44:34.783Z,996.56
2019-03-08T04:45:34.792Z,996.66
2019-03-08T04:46:34.799Z,996.64
2019-03-08T04:47:34.935Z,996.68
2019-03-08T04:48:34.820Z,996.74
2019-03-08T04:49:34.822Z,996.74
2019-03-08T04:50:34.883Z,996.80
2019-03-08T04:51:34.844Z,996.81
2019-03-08T04:52:34.887Z,996.83
2019-03-08T04:53:35.073Z,996.89
2019-03-08T04:54:34.888Z,996.82
2019-03-08T04:55:34.890Z,996.82
2019-03-08T04:56:34.903Z,996.92
2019-03-08T04:57:34.910Z,997.03
2019-03-08T04:58:34.934Z,996.91
2019-03-08T04:59:34.935Z,996.91
2019-03-08T05:00:34.946Z,997.08
2019-03-08T05:01:34.958Z,997.01
2019-03-08T05:02:34.965Z,997.01
2019-03-08T05:03:34.976Z,997.09
2019-03-08T05:04:34.999Z,997.09
2019-03-08T05:05:35.008Z,997.12
2019-03-08T05:06:35.010Z,997.03
2019-03-08T05:07:35.027Z,997.10
2019-03-08T05:08:35.033Z,997.10
2019-03-08T05:09:35.043Z,997.13
2019-03-08T05:10:35.054Z,997.25
2019-03-08T05:11:35.075Z,997.19
2019-03-08T05:12:35.084Z,997.20
2019-03-08T05:13:35.087Z,997.23
2019-03-08T05:14:35.098Z,997.30
2019-03-08T05:15:35.112Z,997.34
2019-03-08T05:16:35.120Z,997.30
2019-03-08T05:17:35.134Z,997.31
2019-03-08T05:18:35.185Z,997.30
2019-03-08T05:19:35.157Z,997.38
2019-03-08T05:20:35.173Z,997.33
2019-03-08T05:21:35.178Z,997.44
2019-03-08T05:22:35.192Z,997.39
2019-03-08T05:23:35.201Z,997.41
2019-03-08T05:24:35.212Z,997.40
2019-03-08T05:25:35.272Z,997.40
2019-03-08T05:26:35.238Z,997.40
2019-03-08T05:27:35.246Z,997.42
2019-03-08T05:28:35.461Z,997.38
2019-03-08T05:29:35.565Z,997.56
2019-03-08T05:30:35.278Z,997.53
2019-03-08T05:31:35.299Z,997.55
2019-03-08T05:32:35.305Z,997.48
2019-03-08T05:33:35.318Z,997.59
2019-03-08T05:34:35.329Z,997.56
2019-03-08T05:35:35.436Z,997.49
2019-03-08T05:36:35.345Z,997.60
2019-03-08T05:37:35.357Z,997.58
2019-03-08T05:38:35.379Z,997.62
2019-03-08T05:39:35.382Z,997.63
2019-03-08T05:40:35.396Z,997.70
2019-03-08T05:41:35.401Z,997.67
2019-03-08T05:42:35.416Z,997.71
2019-03-08T05:43:35.422Z,997.73
2019-03-08T05:44:35.436Z,997.82
2019-03-08T05:45:35.446Z,997.82
2019-03-08T05:46:35.458Z,997.81
2019-03-08T05:47:35.477Z,997.90
2019-03-08T05:48:35.486Z,997.89
2019-03-08T05:49:35.498Z,997.98
2019-03-08T05:50:35.501Z,997.96
2019-03-08T05:51:35.599Z,998.05
2019-03-08T05:52:35.524Z,997.99
2019-03-08T05:53:35.532Z,997.94
2019-03-08T05:54:35.554Z,998.12
2019-03-08T05:55:35.568Z,998.14
2019-03-08T05:56:36.459Z,998.09
2019-03-08T05:57:35.682Z,998.17
2019-03-08T05:58:35.590Z,998.31
2019-03-08T05:59:35.602Z,998.37
2019-03-08T06:00:35.981Z,998.35
2019-03-08T06:01:35.621Z,998.43
2019-03-08T06:02:36.153Z,998.43
2019-03-08T06:03:35.823Z,998.43
2019-03-08T06:04:35.738Z,998.54
2019-03-08T06:05:35.707Z,998.53
2019-03-08T06:06:35.702Z,998.54
2019-03-08T06:07:35.689Z,998.56
2019-03-08T06:08:35.697Z,998.63
2019-03-08T06:09:35.709Z,998.70
2019-03-08T06:10:35.725Z,998.61
2019-03-08T06:11:35.735Z,998.66
2019-03-08T06:12:35.760Z,998.68
2019-03-08T06:13:35.801Z,998.80
2019-03-08T06:14:35.766Z,998.87
2019-03-08T06:15:35.781Z,998.74
2019-03-08T06:16:35.816Z,998.83
2019-03-08T06:17:35.802Z,998.85
2019-03-08T06:18:35.837Z,998.93
2019-03-08T06:19:36.070Z,998.85
2019-03-08T06:20:35.864Z,998.97
2019-03-08T06:21:35.846Z,998.91
2019-03-08T06:22:35.953Z,998.99
2019-03-08T06:23:35.883Z,999.05
2019-03-08T06:24:35.900Z,999.07
2019-03-08T06:25:35.898Z,999.05
2019-03-08T06:26:35.900Z,999.10
2019-03-08T06:28:35.941Z,999.23
2019-03-08T06:29:35.950Z,999.19
2019-03-08T06:30:36.005Z,999.34
2019-03-08T06:31:35.954Z,999.24
2019-03-08T06:32:35.970Z,999.32
2019-03-08T06:33:35.978Z,999.35
2019-03-08T06:34:35.990Z,999.45
2019-03-08T06:36:36.027Z,999.58
2019-03-08T06:37:36.068Z,999.45
2019-03-08T06:38:36.036Z,999.55
2019-03-08T06:39:36.161Z,999.59
2019-03-08T06:40:36.058Z,999.69
2019-03-08T06:41:36.070Z,999.63
2019-03-08T06:42:36.077Z,999.66
2019-03-08T06:43:36.097Z,999.71
2019-03-08T06:44:36.935Z,999.67
2019-03-08T06:45:36.110Z,999.75
2019-03-08T06:46:36.119Z,999.77
2019-03-08T06:47:36.130Z,999.80
2019-03-08T06:48:36.140Z,999.85
2019-03-08T06:49:36.151Z,999.92
2019-03-08T06:50:36.165Z,999.88
2019-03-08T06:51:36.200Z,999.96
2019-03-08T06:52:36.195Z,999.97
2019-03-08T06:53:36.208Z,1000.04
2019-03-08T06:54:36.215Z,1000.01
2019-03-08T06:55:36.227Z,1000.08
2019-03-08T06:56:36.229Z,1000.07
2019-03-08T06:57:36.248Z,1000.20
2019-03-08T06:58:36.259Z,1000.14
2019-03-08T07:00:36.341Z,1000.23
2019-03-08T07:01:36.550Z,1000.35
2019-03-08T07:02:36.569Z,1000.34
2019-03-08T07:03:36.805Z,1000.32
2019-03-08T07:04:36.327Z,1000.48
2019-03-08T07:05:36.325Z,1000.48
2019-03-08T07:06:36.339Z,1000.48
2019-03-08T07:07:36.358Z,1000.58
2019-03-08T07:08:36.363Z,1000.55
2019-03-08T07:09:36.483Z,1000.48
2019-03-08T07:10:36.383Z,1000.53
2019-03-08T07:11:36.400Z,1000.54
2019-03-08T07:12:36.410Z,1000.64
2019-03-08T07:13:36.418Z,1000.62
2019-03-08T07:14:36.435Z,1000.66
2019-03-08T07:15:36.447Z,1000.65
2019-03-08T07:16:37.067Z,1000.71
2019-03-08T07:17:36.461Z,1000.78
2019-03-08T07:18:36.482Z,1000.83
2019-03-08T07:19:40.986Z,1000.92
2019-03-08T07:20:36.493Z,1000.88
2019-03-08T07:21:36.503Z,1000.92
2019-03-08T07:22:36.521Z,1001.02
2019-03-08T07:23:36.534Z,1000.91
2019-03-08T07:24:36.548Z,1000.98
2019-03-08T07:25:36.554Z,1000.96
2019-03-08T07:26:36.575Z,1001.25
2019-03-08T07:27:36.582Z,1001.11
2019-03-08T07:28:36.584Z,1001.19
2019-03-08T07:29:36.596Z,1001.26
2019-03-08T07:30:36.602Z,1001.28
2019-03-08T07:31:36.618Z,1001.30
2019-03-08T07:32:36.661Z,1001.34
2019-03-08T07:33:36.639Z,1001.41
2019-03-08T07:34:36.653Z,1001.36
2019-03-08T07:35:36.682Z,1001.41
2019-03-08T07:36:36.676Z,1001.47
2019-03-08T07:37:36.687Z,1001.46
2019-03-08T07:38:36.693Z,1001.45
2019-03-08T07:39:36.705Z,1001.58
2019-03-08T07:40:36.726Z,1001.61
2019-03-08T07:41:36.760Z,1001.69
2019-03-08T07:42:36.762Z,1001.73
2019-03-08T07:43:36.754Z,1001.69
2019-03-08T07:44:36.771Z,1001.79
2019-03-08T07:45:36.777Z,1001.76
2019-03-08T07:46:36.781Z,1001.82
2019-03-08T07:47:36.893Z,1001.93
2019-03-08T07:48:37.155Z,1001.86
2019-03-08T07:49:38.733Z,1001.89
2019-03-08T07:50:36.837Z,1001.92
2019-03-08T07:51:36.854Z,1001.90
2019-03-08T07:52:36.862Z,1002.05
2019-03-08T07:53:36.874Z,1001.94
2019-03-08T07:55:36.890Z,1002.01
2019-03-08T07:56:37.041Z,1001.95
2019-03-08T07:57:36.936Z,1002.04
2019-03-08T07:58:36.936Z,1002.06
2019-03-08T07:59:36.940Z,1002.03
2019-03-08T08:01:37.030Z,1002.15
2019-03-08T08:03:38.219Z,1002.17
2019-03-08T08:04:36.984Z,1002.27
2019-03-08T08:07:37.769Z,1002.34
2019-03-08T08:09:37.220Z,1002.37
2019-03-08T08:10:37.776Z,1002.51
2019-03-08T08:12:37.119Z,1002.55
2019-03-08T08:13:37.132Z,1002.60
2019-03-08T08:14:39.802Z,1002.58
2019-03-08T08:15:37.123Z,1002.56
2019-03-08T08:16:37.283Z,1002.59
2019-03-08T08:17:37.150Z,1002.64
2019-03-08T08:18:37.177Z,1002.65
2019-03-08T08:19:37.161Z,1002.64
2019-03-08T08:20:37.164Z,1002.67
2019-03-08T08:21:37.187Z,1002.62
2019-03-08T08:22:37.191Z,1002.66
2019-03-08T08:24:37.215Z,1002.70
2019-03-08T08:25:37.237Z,1002.67
2019-03-08T08:26:37.233Z,1002.77
2019-03-08T08:27:37.260Z,1002.81
2019-03-08T08:28:37.265Z,1002.94
2019-03-08T08:29:37.280Z,1002.93
2019-03-08T08:30:37.300Z,1002.91
2019-03-08T08:31:37.324Z,1002.93
2019-03-08T08:32:37.321Z,1002.91
2019-03-08T08:33:37.778Z,1002.93
2019-03-08T08:34:37.332Z,1002.97
2019-03-08T08:35:37.390Z,1003.05
2019-03-08T08:36:37.349Z,1003.01
2019-03-08T08:37:37.361Z,1003.14
2019-03-08T08:38:37.376Z,1003.07
2019-03-08T08:39:37.392Z,1003.11
2019-03-08T08:40:37.412Z,1003.14
2019-03-08T08:41:37.409Z,1003.12
2019-03-08T08:42:37.435Z,1003.29
2019-03-08T08:43:37.437Z,1003.21
2019-03-08T08:44:37.480Z,1003.19
2019-03-08T08:45:37.464Z,1003.26
2019-03-08T08:46:37.515Z,1003.31
2019-03-08T08:47:37.494Z,1003.35
2019-03-08T08:48:37.520Z,1003.34
2019-03-08T08:49:37.511Z,1003.31
2019-03-08T08:50:37.566Z,1003.39
2019-03-08T08:51:37.527Z,1003.45
2019-03-08T08:52:37.551Z,1003.48
2019-03-08T08:53:37.666Z,1003.50
2019-03-08T08:54:37.575Z,1003.59
2019-03-08T08:55:37.572Z,1003.62
2019-03-08T08:56:37.589Z,1003.63
2019-03-08T08:57:37.601Z,1003.61
2019-03-08T08:58:37.658Z,1003.62
2019-03-08T08:59:37.750Z,1003.66
2019-03-08T09:00:37.643Z,1003.68
2019-03-08T09:01:37.647Z,1003.69
2019-03-08T09:02:37.664Z,1003.77
2019-03-08T09:03:37.731Z,1003.71
2019-03-08T09:04:37.681Z,1003.76
2019-03-08T09:05:37.695Z,1003.78
2019-03-08T09:06:37.716Z,1003.85
2019-03-08T09:07:37.739Z,1003.86
2019-03-08T09:08:38.392Z,1003.87
2019-03-08T09:09:37.746Z,1003.98
2019-03-08T09:10:37.759Z,1003.89
2019-03-08T09:11:44.590Z,1003.93
2019-03-08T09:12:37.777Z,1003.98
2019-03-08T09:13:38.148Z,1004.15
2019-03-08T09:14:38.597Z,1004.05
2019-03-08T09:15:37.822Z,1004.12
2019-03-08T09:16:37.825Z,1004.13
2019-03-08T09:17:37.837Z,1004.13
2019-03-08T09:18:37.885Z,1004.15
2019-03-08T09:19:37.889Z,1004.14
2019-03-08T09:20:37.867Z,1004.20
2019-03-08T09:21:37.893Z,1004.24
2019-03-08T09:22:37.982Z,1004.17
2019-03-08T09:23:37.916Z,1004.38
2019-03-08T09:24:37.919Z,1004.27
2019-03-08T09:25:37.931Z,1004.30
2019-03-08T09:26:37.992Z,1004.31
2019-03-08T09:27:37.958Z,1004.26
2019-03-08T09:28:37.980Z,1004.37
2019-03-08T09:29:41.325Z,1004.32
2019-03-08T09:30:37.998Z,1004.30
2019-03-08T09:31:38.107Z,1004.34
2019-03-08T09:32:38.017Z,1004.41
2019-03-08T09:33:38.039Z,1004.34
2019-03-08T09:34:38.273Z,1004.33
2019-03-08T09:35:38.045Z,1004.24
2019-03-08T09:36:38.082Z,1004.28
2019-03-08T09:37:38.071Z,1004.28
2019-03-08T09:38:38.082Z,1004.32
2019-03-08T09:39:38.104Z,1004.35
2019-03-08T09:40:38.114Z,1004.38
2019-03-08T09:41:38.135Z,1004.35
2019-03-08T09:42:38.308Z,1004.39
2019-03-08T09:43:38.151Z,1004.44
2019-03-08T09:44:38.160Z,1004.48
2019-03-08T09:45:38.167Z,1004.47
2019-03-08T09:46:38.180Z,1004.57
2019-03-08T09:47:38.204Z,1004.53
2019-03-08T09:48:38.331Z,1004.53
2019-03-08T09:49:38.225Z,1004.61
2019-03-08T09:50:38.229Z,1004.57
2019-03-08T09:51:38.247Z,1004.64
2019-03-08T09:52:38.275Z,1004.64
2019-03-08T09:53:38.250Z,1004.67
2019-03-08T09:54:38.265Z,1004.64
2019-03-08T09:55:38.289Z,1004.67
2019-03-08T09:56:38.294Z,1004.70
2019-03-08T09:57:38.300Z,1004.77
2019-03-08T09:58:38.342Z,1004.78
2019-03-08T09:59:38.354Z,1004.74
2019-03-08T10:00:38.340Z,1004.78
2019-03-08T10:01:38.346Z,1004.81
2019-03-08T10:02:38.365Z,1004.79
2019-03-08T10:03:38.370Z,1004.76
2019-03-08T10:04:38.390Z,1004.81
2019-03-08T10:05:38.416Z,1004.90
2019-03-08T10:06:38.824Z,1004.84
2019-03-08T10:07:38.441Z,1004.85
2019-03-08T10:08:38.466Z,1004.83
2019-03-08T10:09:38.442Z,1004.84
2019-03-08T10:10:38.462Z,1004.84
2019-03-08T10:11:38.466Z,1004.93
2019-03-08T10:12:38.485Z,1004.85
2019-03-08T10:13:38.494Z,1004.89
2019-03-08T10:14:38.499Z,1004.91
2019-03-08T10:15:38.541Z,1004.89
2019-03-08T10:16:38.534Z,1004.83
2019-03-08T10:17:38.535Z,1004.79
2019-03-08T10:18:40.166Z,1004.80
2019-03-08T10:19:38.573Z,1004.99
2019-03-08T10:20:38.584Z,1004.98
2019-03-08T10:21:38.593Z,1005.00
2019-03-08T10:22:38.600Z,1004.91
2019-03-08T10:23:38.631Z,1004.94
2019-03-08T10:24:38.629Z,1005.04
2019-03-08T10:25:39.553Z,1004.90
2019-03-08T10:26:39.497Z,1004.98
2019-03-08T10:27:38.665Z,1005.00
2019-03-08T10:28:38.685Z,1005.09
2019-03-08T10:29:38.695Z,1005.13
2019-03-08T10:30:38.704Z,1005.15
2019-03-08T10:31:38.722Z,1005.18
2019-03-08T10:32:38.762Z,1005.43
2019-03-08T10:33:46.175Z,1005.24
2019-03-08T10:34:38.774Z,1005.34
2019-03-08T10:35:38.804Z,1005.31
2019-03-08T10:36:38.857Z,1005.39
2019-03-08T10:37:38.802Z,1005.27
2019-03-08T10:38:38.803Z,1005.39
2019-03-08T10:39:38.948Z,1005.36
2019-03-08T10:40:38.843Z,1005.31
2019-03-08T10:41:38.847Z,1005.40
2019-03-08T10:43:42.263Z,1005.39
2019-03-08T10:44:39.918Z,1005.47
2019-03-08T10:45:39.926Z,1005.55
2019-03-08T10:46:39.255Z,1005.53
2019-03-08T10:50:39.338Z,1005.53
2019-03-08T10:51:39.025Z,1005.51
2019-03-08T10:52:38.988Z,1005.52
2019-03-08T10:53:39.036Z,1005.71
2019-03-08T10:54:39.292Z,1005.62
2019-03-08T10:55:40.661Z,1005.62
2019-03-08T10:56:39.079Z,1005.67
2019-03-08T10:57:39.994Z,1005.73
2019-03-08T10:58:39.431Z,1005.73
2019-03-08T10:59:39.071Z,1005.78
2019-03-08T11:00:39.080Z,1005.79
2019-03-08T11:01:39.133Z,1005.83
2019-03-08T11:02:39.122Z,1005.77
2019-03-08T11:03:39.114Z,1005.75
2019-03-08T11:04:39.147Z,1005.82
2019-03-08T11:05:39.147Z,1005.86
2019-03-08T11:06:39.148Z,1005.86
2019-03-08T11:07:39.171Z,1005.83
2019-03-08T11:08:39.216Z,1005.90
2019-03-08T11:09:39.186Z,1005.94
2019-03-08T11:10:39.203Z,1005.99
2019-03-08T11:11:39.283Z,1006.07
2019-03-08T11:12:39.691Z,1006.20
2019-03-08T11:13:43.307Z,1006.16
2019-03-08T11:14:39.262Z,1006.19
2019-03-08T11:15:39.276Z,1006.17
2019-03-08T11:16:39.279Z,1006.21
2019-03-08T11:17:39.338Z,1006.24
2019-03-08T11:18:39.316Z,1006.22
2019-03-08T11:19:39.373Z,1006.28
2019-03-08T11:20:39.326Z,1006.20
2019-03-08T11:21:39.347Z,1006.22
2019-03-08T11:22:39.355Z,1006.22
2019-03-08T11:23:39.499Z,1006.30
2019-03-08T11:24:39.396Z,1006.27
2019-03-08T11:25:39.394Z,1006.25
2019-03-08T11:26:40.733Z,1006.23
2019-03-08T11:27:39.497Z,1006.21
2019-03-08T11:28:39.522Z,1006.25
2019-03-08T11:29:39.449Z,1006.26
2019-03-08T11:30:39.465Z,1006.20
2019-03-08T11:31:39.481Z,1006.23
2019-03-08T11:32:39.487Z,1006.21
2019-03-08T11:33:39.506Z,1006.25
2019-03-08T11:34:39.563Z,1006.31
2019-03-08T11:35:39.839Z,1006.28
2019-03-08T11:36:40.923Z,1006.26
2019-03-08T11:37:39.631Z,1006.29
2019-03-08T11:39:39.578Z,1006.27
2019-03-08T11:40:39.593Z,1006.28
2019-03-08T11:41:39.607Z,1006.35
2019-03-08T11:42:39.622Z,1006.35
2019-03-08T11:43:39.638Z,1006.35
2019-03-08T11:44:39.706Z,1006.34
2019-03-08T11:45:39.699Z,1006.35
2019-03-08T11:46:39.679Z,1006.38
2019-03-08T11:47:39.704Z,1006.41
2019-03-08T11:48:39.695Z,1006.45
2019-03-08T11:49:39.719Z,1006.44
2019-03-08T11:50:39.722Z,1006.49
2019-03-08T11:51:39.792Z,1006.44
2019-03-08T11:52:39.747Z,1006.45
2019-03-08T11:53:39.763Z,1006.58
2019-03-08T11:54:41.074Z,1006.58
2019-03-08T11:55:39.786Z,1006.60
2019-03-08T11:56:39.799Z,1006.62
2019-03-08T11:57:39.812Z,1006.67
2019-03-08T11:58:39.828Z,1006.83
2019-03-08T11:59:39.849Z,1006.90
2019-03-08T12:00:39.849Z,1006.91
2019-03-08T12:01:40.011Z,1006.89
2019-03-08T12:02:40.025Z,1006.92
2019-03-08T12:03:39.896Z,1006.90
2019-03-08T12:04:40.866Z,1006.89
2019-03-08T12:05:39.921Z,1006.85
2019-03-08T12:06:39.931Z,1006.92
2019-03-08T12:07:39.975Z,1006.91
2019-03-08T12:08:40.017Z,1006.97
2019-03-08T12:09:40.392Z,1007.04
2019-03-08T12:10:39.978Z,1007.04
2019-03-08T12:11:40.017Z,1007.05
2019-03-08T12:12:40.019Z,1007.15
2019-03-08T12:13:40.022Z,1007.11
2019-03-08T12:14:40.299Z,1007.18
2019-03-08T12:15:40.042Z,1007.13
2019-03-08T12:16:40.050Z,1007.11
2019-03-08T12:17:40.067Z,1007.16
2019-03-08T12:18:40.150Z,1007.16
2019-03-08T12:19:40.116Z,1007.19
2019-03-08T12:20:40.098Z,1007.17
2019-03-08T12:21:40.135Z,1007.20
2019-03-08T12:23:40.140Z,1007.13
2019-03-08T12:24:40.148Z,1007.17
2019-03-08T12:25:40.889Z,1007.22
2019-03-08T12:26:40.272Z,1007.22
2019-03-08T12:27:40.196Z,1007.22
2019-03-08T12:28:40.207Z,1007.20
2019-03-08T12:29:40.209Z,1007.20
2019-03-08T12:30:40.220Z,1007.19
2019-03-08T12:31:40.270Z,1007.17
2019-03-08T12:32:40.261Z,1007.16
2019-03-08T12:33:40.261Z,1007.19
2019-03-08T12:34:40.275Z,1007.12
2019-03-08T12:35:40.293Z,1007.08
2019-03-08T12:36:40.298Z,1007.09
2019-03-08T12:37:40.327Z,1007.11
2019-03-08T12:38:41.303Z,1007.11
2019-03-08T12:39:40.340Z,1007.04
2019-03-08T12:40:40.508Z,1007.07